Time;durP1;ratioP1;P1;durP2;ratioP2;P2;SDS_P1;SDS_P2;PMS_P1;PMS_P2;Temp;Humidity;BMP_temperature;BMP_pressure;BME280_temperature;BME280_humidity;BME280_pressure;Samples;Min_cycle;Max_cycle;Signal;HPM_P1;HPM_P2
2022/04/16 00:00:50;;;;;;;21.80;15.20;;;8.30;99.90;;;;;;5003933;28;20122;-77
2022/04/16 00:03:16;;;;;;;21.55;15.32;;;8.70;99.90;;;;;;5020504;28;20045;-78
2022/04/16 00:05:44;;;;;;;26.33;15.98;;;8.20;99.90;;;;;;5008450;28;20044;-80
2022/04/16 00:08:10;;;;;;;26.30;15.73;;;8.10;99.90;;;;;;5003641;28;20034;-81
2022/04/16 00:10:41;;;;;;;21.77;15.52;;;8.00;99.90;;;;;;5008334;28;20491;-79
2022/04/16 00:13:07;;;;;;;21.95;15.40;;;8.10;99.90;;;;;;5011356;28;20038;-81
2022/04/16 00:15:33;;;;;;;23.23;15.90;;;7.90;99.90;;;;;;5019703;28;20040;-79
2022/04/16 00:17:59;;;;;;;22.40;16.02;;;7.90;99.90;;;;;;5003382;28;20048;-79
2022/04/16 00:20:27;;;;;;;24.70;16.00;;;7.80;99.90;;;;;;5016905;28;20029;-79
2022/04/16 00:22:53;;;;;;;22.67;16.17;;;7.70;99.90;;;;;;5020072;28;20504;-80
2022/04/16 00:25:19;;;;;;;31.60;16.77;;;7.60;99.90;;;;;;5013647;28;20140;-81
2022/04/16 00:27:49;;;;;;;26.27;16.70;;;7.60;99.90;;;;;;5028869;28;20436;-79
2022/04/16 00:30:17;;;;;;;26.70;16.85;;;7.50;99.90;;;;;;5034310;28;20049;-79
2022/04/16 00:32:44;;;;;;;25.35;15.90;;;7.40;99.90;;;;;;5005332;28;20033;-78
2022/04/16 00:35:10;;;;;;;23.80;16.02;;;7.40;99.90;;;;;;5026695;28;20045;-78
2022/04/16 00:37:37;;;;;;;26.83;17.20;;;7.30;99.90;;;;;;5016965;28;20360;-78
2022/04/16 00:40:03;;;;;;;26.35;17.63;;;7.70;99.90;;;;;;5008900;28;20067;-78
2022/04/16 00:42:38;;;;;;;27.15;17.27;;;7.10;99.90;;;;;;5051807;28;20057;-80
2022/04/16 00:45:04;;;;;;;;;;;7.10;99.90;;;;;;5052730;28;20078;-78
2022/04/16 00:47:30;;;;;;;26.92;16.75;;;7.10;99.90;;;;;;5051580;28;19916;-78
2022/04/16 00:49:56;;;;;;;24.15;17.35;;;7.10;99.90;;;;;;5034443;28;20376;-80
2022/04/16 00:52:21;;;;;;;31.17;17.80;;;7.10;99.90;;;;;;5045173;28;20114;-81
2022/04/16 00:54:50;;;;;;;29.77;18.15;;;7.10;99.90;;;;;;5034310;28;20060;-80
2022/04/16 00:57:17;;;;;;;26.13;18.55;;;7.10;99.90;;;;;;5052013;28;20037;-81
2022/04/16 00:59:43;;;;;;;28.63;18.15;;;7.10;99.90;;;;;;5051993;28;20029;-80
2022/04/16 01:02:10;;;;;;;24.30;17.90;;;7.20;99.90;;;;;;5052043;28;20365;-78
2022/04/16 01:04:36;;;;;;;29.95;18.45;;;7.20;99.90;;;;;;5052308;28;20052;-80
2022/04/16 01:07:01;;;;;;;27.25;18.35;;;7.20;99.90;;;;;;5034034;28;20052;-79
2022/04/16 01:09:27;;;;;;;29.05;18.77;;;7.10;99.90;;;;;;5034413;28;20411;-78
2022/04/16 01:11:52;;;;;;;28.83;18.55;;;7.10;99.90;;;;;;5050767;28;20053;-77
2022/04/16 01:14:21;;;;;;;29.83;19.13;;;7.20;99.90;;;;;;5050467;28;20033;-78
2022/04/16 01:16:47;;;;;;;29.20;19.52;;;7.10;99.90;;;;;;5047757;28;20039;-77
2022/04/16 01:19:12;;;;;;;31.70;20.38;;;7.10;99.90;;;;;;5031599;28;20434;-77
2022/04/16 01:21:39;;;;;;;32.40;20.15;;;7.10;99.90;;;;;;5033603;28;20068;-79
2022/04/16 01:24:05;;;;;;;31.15;19.67;;;7.00;99.90;;;;;;5032474;28;20033;-77
2022/04/16 01:26:31;;;;;;;32.67;20.50;;;7.00;99.90;;;;;;5032392;28;20095;-79
2022/04/16 01:28:57;;;;;;;33.33;19.88;;;7.00;99.90;;;;;;5028842;28;20049;-78
2022/04/16 01:31:22;;;;;;;27.58;19.35;;;7.00;99.90;;;;;;5047468;28;20053;-80
2022/04/16 01:33:48;;;;;;;29.98;19.73;;;6.90;99.90;;;;;;5049108;28;20707;-80
2022/04/16 01:36:14;;;;;;;29.48;19.15;;;6.80;99.90;;;;;;5049739;28;20379;-81
2022/04/16 01:38:39;;;;;;;31.48;19.15;;;6.80;99.90;;;;;;5031651;28;20075;-79
2022/04/16 01:41:05;;;;;;;36.67;19.05;;;6.90;99.90;;;;;;5038981;28;20054;-80
2022/04/16 01:43:31;;;;;;;29.25;19.20;;;6.70;99.90;;;;;;5013480;28;20045;-79
2022/04/16 01:45:58;;;;;;;29.10;19.60;;;6.70;99.90;;;;;;5033372;28;20048;-78
2022/04/16 01:48:27;;;;;;;31.20;19.15;;;6.70;99.90;;;;;;5005888;28;20064;-77
2022/04/16 01:50:54;;;;;;;33.35;19.92;;;6.80;99.90;;;;;;5012096;28;20045;-78
2022/04/16 01:53:20;;;;;;;30.88;20.63;;;6.70;99.90;;;;;;5028422;28;20425;-79
2022/04/16 01:55:45;;;;;;;30.50;20.17;;;6.70;99.90;;;;;;5029083;28;20030;-77
2022/04/16 01:58:11;;;;;;;35.35;21.15;;;6.60;99.90;;;;;;5012607;28;20025;-77
2022/04/16 02:00:37;;;;;;;37.97;21.20;;;6.60;99.90;;;;;;5028843;28;20826;-79
2022/04/16 02:03:02;;;;;;;35.60;21.98;;;6.60;99.90;;;;;;5027951;28;20046;-79
2022/04/16 02:05:28;;;;;;;35.45;21.83;;;6.70;99.90;;;;;;5029840;28;20041;-76
2022/04/16 02:07:54;;;;;;;38.35;23.17;;;6.60;99.90;;;;;;5027438;28;20041;-79
2022/04/16 02:10:20;;;;;;;40.42;23.13;;;6.80;99.90;;;;;;5027081;28;20457;-80
2022/04/16 02:12:46;;;;;;;42.78;23.48;;;6.60;99.90;;;;;;5010862;28;20030;-80
2022/04/16 02:15:13;;;;;;;34.28;22.17;;;6.70;99.90;;;;;;5029397;28;20034;-80
2022/04/16 02:17:39;;;;;;;36.33;22.48;;;6.70;99.90;;;;;;5052041;28;20021;-78
2022/04/16 02:20:10;;;;;;;40.00;23.92;;;6.70;99.90;;;;;;5033590;28;20034;-78
2022/04/16 02:22:44;;;;;;;41.03;24.33;;;6.60;99.90;;;;;;5051451;28;20048;-80
2022/04/16 02:25:11;;;;;;;39.08;24.13;;;6.70;99.90;;;;;;5051766;28;20042;-76
2022/04/16 02:27:37;;;;;;;44.58;24.55;;;6.60;99.90;;;;;;5051132;28;20045;-78
2022/04/16 02:30:08;;;;;;;42.75;25.77;;;6.70;99.90;;;;;;5028452;28;20033;-78
2022/04/16 02:32:43;;;;;;;42.88;25.58;;;6.70;99.90;;;;;;5023623;28;20090;-77
2022/04/16 02:35:09;;;;;;;42.95;26.17;;;6.70;99.90;;;;;;4994757;28;20094;-80
2022/04/16 02:37:36;;;;;;;45.33;26.23;;;6.70;99.90;;;;;;5011552;28;20361;-78
2022/04/16 02:40:03;;;;;;;48.47;26.67;;;6.80;99.90;;;;;;5036939;28;20085;-79
2022/04/16 02:42:29;;;;;;;45.50;25.98;;;6.80;99.90;;;;;;5046752;28;20521;-78
2022/04/16 02:47:39;;;;;;;42.30;24.95;;;6.90;99.90;;;;;;5047367;28;20136;-76
2022/04/16 02:50:05;;;;;;;36.72;24.77;;;6.90;99.90;;;;;;5047324;28;20128;-77
2022/04/16 02:52:37;;;;;;;36.60;24.35;;;6.90;99.90;;;;;;5045928;28;20045;-79
2022/04/16 02:55:04;;;;;;;37.50;23.80;;;7.00;99.90;;;;;;5047344;28;20052;-81
2022/04/16 02:57:33;;;;;;;38.55;24.80;;;7.00;99.90;;;;;;5048220;28;20033;-77
2022/04/16 02:59:59;;;;;;;36.90;24.15;;;7.30;99.90;;;;;;5029349;28;20045;-78
2022/04/16 03:02:25;;;;;;;40.88;24.65;;;7.30;99.90;;;;;;5031136;28;20033;-77
2022/04/16 03:04:51;;;;;;;37.88;24.25;;;7.40;99.90;;;;;;5046220;28;20390;-79
2022/04/16 03:07:17;;;;;;;38.80;23.90;;;7.40;99.90;;;;;;5047526;28;20562;-78
2022/04/16 03:09:43;;;;;;;34.97;22.23;;;7.50;99.90;;;;;;5032023;28;20044;-79
2022/04/16 03:12:10;;;;;;;32.60;22.70;;;7.60;99.90;;;;;;5032462;28;20041;-77
2022/04/16 03:17:32;;;;;;;36.28;24.38;;;7.60;99.90;;;;;;5048885;28;20037;-79
2022/04/16 03:19:58;;;;;;;36.85;23.55;;;7.70;99.90;;;;;;5046894;28;20495;-78
2022/04/16 03:22:24;;;;;;;42.13;27.05;;;7.80;99.90;;;;;;5048118;28;20055;-80
2022/04/16 03:24:50;;;;;;;42.00;25.98;;;7.80;99.90;;;;;;5033938;28;20045;-77
2022/04/16 03:27:16;;;;;;;38.78;26.17;;;7.80;99.90;;;;;;5031796;28;20194;-78
2022/04/16 03:29:42;;;;;;;38.40;25.10;;;7.80;99.90;;;;;;5034358;28;20065;-78
2022/04/16 03:32:08;;;;;;;43.40;27.10;;;7.80;99.90;;;;;;5014599;28;20072;-79
2022/04/16 03:34:34;;;;;;;40.30;27.55;;;8.00;99.90;;;;;;5007068;28;20048;-78
2022/04/16 03:37:00;;;;;;;40.85;27.92;;;7.80;99.90;;;;;;5050734;28;20037;-77
2022/04/16 03:39:25;;;;;;;38.65;26.38;;;7.80;99.90;;;;;;5030064;28;20041;-80
2022/04/16 03:41:51;;;;;;;38.20;26.08;;;7.90;99.90;;;;;;5050098;28;20037;-80
2022/04/16 03:44:17;;;;;;;37.55;25.58;;;7.90;99.90;;;;;;5032138;28;20033;-81
2022/04/16 03:46:43;;;;;;;39.70;26.13;;;8.00;99.90;;;;;;5047924;28;20140;-79
2022/04/16 03:49:08;;;;;;;41.85;26.77;;;8.10;99.90;;;;;;5030796;28;20052;-80
2022/04/16 03:51:34;;;;;;;40.55;26.90;;;8.20;99.90;;;;;;5047663;28;20073;-80
2022/04/16 03:59:59;;;;;;;38.33;26.00;;;7.90;99.90;;;;;;5050164;28;20128;-77
2022/04/16 04:02:14;;;;;;;46.30;28.70;;;7.90;99.90;;;;;;5045849;28;20049;-78
2022/04/16 04:04:40;;;;;;;41.13;29.40;;;7.80;99.90;;;;;;5032251;28;20037;-79
2022/04/16 04:07:06;;;;;;;42.97;28.88;;;8.00;99.90;;;;;;5047791;28;20033;-80
2022/04/16 04:09:31;;;;;;;44.70;28.85;;;7.80;99.90;;;;;;5031736;28;20044;-76
2022/04/16 04:11:57;;;;;;;47.40;31.58;;;7.80;99.90;;;;;;5032539;28;20067;-77
2022/04/16 04:14:23;;;;;;;53.13;31.15;;;7.70;99.90;;;;;;5050048;28;20194;-77
2022/04/16 04:16:48;;;;;;;48.05;32.50;;;7.70;99.90;;;;;;5049651;28;20033;-78
2022/04/16 04:19:14;;;;;;;50.13;32.33;;;7.80;99.90;;;;;;5034611;28;20044;-76
2022/04/16 04:21:39;;;;;;;49.95;32.95;;;7.70;99.90;;;;;;5050083;28;20055;-78
2022/04/16 04:24:05;;;;;;;50.70;31.10;;;7.70;99.90;;;;;;5033497;28;20037;-78
2022/04/16 04:26:31;;;;;;;54.80;33.42;;;7.70;99.90;;;;;;5033408;28;20499;-79
2022/04/16 04:28:56;;;;;;;51.92;33.00;;;7.80;99.90;;;;;;5034784;28;20059;-78
2022/04/16 04:31:22;;;;;;;52.42;32.22;;;7.70;99.90;;;;;;5049772;28;20036;-80
2022/04/16 04:33:48;;;;;;;53.53;34.67;;;7.70;99.90;;;;;;5051568;28;20029;-77
2022/04/16 04:36:13;;;;;;;48.55;31.08;;;7.70;99.90;;;;;;5033907;28;20044;-80
2022/04/16 04:38:39;;;;;;;49.83;34.17;;;7.70;99.90;;;;;;5029596;28;20033;-78
2022/04/16 04:41:07;;;;;;;52.22;32.38;;;7.70;99.90;;;;;;5047145;28;20050;-78
2022/04/16 04:43:33;;;;;;;44.63;27.92;;;7.70;99.90;;;;;;5035288;28;20045;-79
2022/04/16 04:45:58;;;;;;;45.25;29.17;;;8.30;99.90;;;;;;5034580;28;20037;-77
2022/04/16 04:48:24;;;;;;;47.95;32.47;;;7.70;99.90;;;;;;5034419;28;20051;-77
2022/04/16 04:50:50;;;;;;;48.10;31.27;;;7.70;99.90;;;;;;5035169;28;20043;-80
2022/04/16 04:53:18;;;;;;;50.38;32.72;;;7.60;99.90;;;;;;5033733;28;20040;-81
2022/04/16 04:55:44;;;;;;;45.85;30.40;;;7.60;99.90;;;;;;5050890;28;20075;-79
2022/04/16 04:58:10;;;;;;;49.35;31.80;;;7.60;99.90;;;;;;5048986;28;20048;-79
2022/04/16 05:00:35;;;;;;;49.95;32.38;;;8.50;99.90;;;;;;5016317;28;20030;-81
2022/04/16 05:03:01;;;;;;;50.38;33.90;;;7.60;99.90;;;;;;5030252;28;20463;-80
2022/04/16 05:05:27;;;;;;;50.92;33.65;;;7.90;99.90;;;;;;5032076;28;20033;-80
2022/04/16 05:07:53;;;;;;;46.42;31.08;;;7.80;99.90;;;;;;5035248;28;20044;-79
2022/04/16 05:10:19;;;;;;;51.05;33.30;;;7.70;99.90;;;;;;5031922;28;20073;-80
2022/04/16 05:12:44;;;;;;;50.25;32.28;;;7.70;99.90;;;;;;5048753;28;20095;-76
2022/04/16 05:15:10;;;;;;;46.30;30.92;;;7.70;99.90;;;;;;5048371;28;20455;-80
2022/04/16 05:17:40;;;;;;;48.28;31.33;;;7.70;99.90;;;;;;5031427;28;20064;-80
2022/04/16 05:20:07;;;;;;;46.03;31.42;;;7.70;99.90;;;;;;5045320;28;20143;-77
2022/04/16 05:22:33;;;;;;;46.67;29.10;;;7.70;99.90;;;;;;5028983;28;20056;-81
2022/04/16 05:24:59;;;;;;;46.95;30.52;;;7.70;99.90;;;;;;5048621;28;20060;-80
2022/04/16 05:27:25;;;;;;;45.88;28.27;;;7.80;99.90;;;;;;5039179;28;22082;-79
2022/04/16 05:30:04;;;;;;;48.05;29.25;;;7.80;99.90;;;;;;5029174;28;20380;-80
2022/04/16 05:32:37;;;;;;;39.58;26.52;;;7.80;99.90;;;;;;5029512;28;20507;-78
2022/04/16 05:35:05;;;;;;;40.08;26.98;;;7.90;99.90;;;;;;5047249;28;20077;-78
2022/04/16 05:37:30;;;;;;;38.88;26.70;;;8.00;99.90;;;;;;5048847;28;20041;-80
2022/04/16 05:39:56;;;;;;;37.83;25.13;;;8.20;99.90;;;;;;5020077;28;20050;-80
2022/04/16 05:42:22;;;;;;;33.70;22.30;;;8.30;99.90;;;;;;5026746;28;20547;-78
2022/04/16 05:44:50;;;;;;;32.85;22.73;;;7.90;99.90;;;;;;5023704;28;20443;-78
2022/04/16 05:47:15;;;;;;;32.70;21.65;;;8.00;99.90;;;;;;5014040;28;20060;-79
2022/04/16 05:49:41;;;;;;;34.75;22.45;;;8.00;99.90;;;;;;5014789;28;20042;-80
2022/04/16 05:52:07;;;;;;;33.35;21.20;;;8.00;99.90;;;;;;5000317;28;20433;-80
2022/04/16 05:54:35;;;;;;;33.10;22.63;;;8.10;99.90;;;;;;5003947;28;20148;-80
2022/04/16 05:57:02;;;;;;;31.98;19.23;;;8.10;99.90;;;;;;5024526;28;20441;-79
2022/04/16 05:59:28;;;;;;;28.75;18.98;;;8.10;99.90;;;;;;5005733;28;20112;-84
2022/04/16 06:02:13;;;;;;;27.23;18.95;;;8.10;99.90;;;;;;5016146;28;20156;-82
2022/04/16 06:04:38;;;;;;;30.05;18.70;;;8.10;99.90;;;;;;5002507;28;20573;-83
2022/04/16 06:07:04;;;;;;;27.33;18.75;;;8.20;99.90;;;;;;5019693;28;20089;-80
2022/04/16 06:09:31;;;;;;;26.50;17.48;;;8.40;99.90;;;;;;5014017;28;20069;-79
2022/04/16 06:12:04;;;;;;;30.60;19.00;;;8.30;99.90;;;;;;5016035;28;20155;-82
2022/04/16 06:14:32;;;;;;;29.90;19.10;;;8.30;99.90;;;;;;5021255;28;20393;-78
2022/04/16 06:16:58;;;;;;;30.00;17.75;;;8.40;99.90;;;;;;5009559;28;20072;-81
2022/04/16 06:19:24;;;;;;;25.45;16.15;;;8.70;99.90;;;;;;5017065;28;20131;-80
2022/04/16 06:21:50;;;;;;;31.83;17.50;;;8.80;99.90;;;;;;5003837;28;20046;-78
2022/04/16 06:24:16;;;;;;;28.02;18.67;;;8.40;99.90;;;;;;5000959;28;20077;-80
2022/04/16 06:26:45;;;;;;;26.20;18.00;;;8.10;99.90;;;;;;5021136;28;20058;-76
2022/04/16 06:29:11;;;;;;;28.77;18.48;;;8.40;99.90;;;;;;5022407;28;20079;-76
2022/04/16 06:31:36;;;;;;;26.88;17.33;;;8.40;99.90;;;;;;5022646;28;20081;-78
2022/04/16 06:34:02;;;;;;;27.90;17.85;;;8.50;99.90;;;;;;5001116;28;20139;-79
2022/04/16 06:36:28;;;;;;;26.13;17.77;;;9.00;99.90;;;;;;5020078;28;20034;-79
2022/04/16 06:38:54;;;;;;;27.83;18.30;;;8.60;99.90;;;;;;5002041;28;20060;-78
2022/04/16 06:41:19;;;;;;;27.55;18.00;;;8.70;99.90;;;;;;5054241;28;20123;-79
2022/04/16 06:43:45;;;;;;;28.92;17.80;;;8.80;99.90;;;;;;5037549;28;20127;-80
2022/04/16 06:46:11;;;;;;;25.83;15.63;;;9.30;99.90;;;;;;5049221;28;20068;-77
2022/04/16 06:48:37;;;;;;;26.92;17.45;;;9.30;99.90;;;;;;5033104;28;20098;-77
2022/04/16 06:51:03;;;;;;;25.35;16.40;;;8.70;99.90;;;;;;5033077;28;20427;-80
2022/04/16 06:53:28;;;;;;;27.25;17.08;;;8.60;99.90;;;;;;5018377;28;20040;-79
2022/04/16 06:55:54;;;;;;;24.95;16.40;;;8.60;99.90;;;;;;5050165;28;20052;-83
2022/04/16 06:58:20;;;;;;;21.65;15.52;;;8.70;99.90;;;;;;5071149;28;20032;-77
2022/04/16 07:00:45;;;;;;;24.00;15.27;;;8.60;99.90;;;;;;5046834;28;20045;-80
2022/04/16 07:03:11;;;;;;;22.52;15.32;;;8.60;99.90;;;;;;5034916;28;20064;-85
2022/04/16 07:05:37;;;;;;;29.33;14.77;;;8.70;99.90;;;;;;5055049;28;20045;-78
2022/04/16 07:08:03;;;;;;;23.15;15.30;;;8.80;99.90;;;;;;5047333;28;20040;-80
2022/04/16 07:10:28;;;;;;;26.08;14.57;;;8.70;99.90;;;;;;5046984;28;20041;-82
2022/04/16 07:12:54;;;;;;;23.65;14.90;;;8.70;99.90;;;;;;5052872;28;20482;-83
2022/04/16 07:15:20;;;;;;;20.27;13.73;;;9.00;99.90;;;;;;5053442;28;20151;-80
2022/04/16 07:17:46;;;;;;;23.48;13.30;;;8.70;99.90;;;;;;5046312;28;20059;-81
2022/04/16 07:20:11;;;;;;;20.10;11.93;;;9.30;99.90;;;;;;5050163;28;20041;-78
2022/04/16 07:22:37;;;;;;;20.42;11.68;;;8.80;99.90;;;;;;5051264;28;20036;-79
2022/04/16 07:25:05;;;;;;;20.73;12.02;;;8.80;99.90;;;;;;5032063;28;20040;-76
2022/04/16 07:27:31;;;;;;;19.83;12.00;;;8.80;99.90;;;;;;5035654;28;22362;-81
2022/04/16 07:29:58;;;;;;;19.98;12.02;;;8.90;99.90;;;;;;5037686;28;20053;-80
2022/04/16 07:32:25;;;;;;;18.02;10.30;;;8.90;99.90;;;;;;5059082;28;20052;-80
2022/04/16 07:34:51;;;;;;;21.55;11.25;;;8.90;99.90;;;;;;5055386;28;20040;-81
2022/04/16 07:37:17;;;;;;;18.38;11.55;;;9.00;99.90;;;;;;5052922;28;20066;-80
2022/04/16 07:39:43;;;;;;;20.63;11.32;;;9.40;99.90;;;;;;5035372;28;20103;-79
2022/04/16 07:42:09;;;;;;;14.90;8.63;;;9.50;99.90;;;;;;5049953;28;20044;-81
2022/04/16 07:44:37;;;;;;;16.70;9.10;;;9.10;99.90;;;;;;5067293;28;20033;-80
2022/04/16 07:47:03;;;;;;;16.75;10.30;;;9.10;99.90;;;;;;5034783;28;20063;-81
2022/04/16 07:49:29;;;;;;;18.27;11.15;;;9.10;99.90;;;;;;5034404;28;20060;-81
2022/04/16 07:51:54;;;;;;;18.15;10.90;;;9.70;99.90;;;;;;5030107;28;20059;-78
2022/04/16 07:54:20;;;;;;;18.17;9.98;;;9.90;99.90;;;;;;5052554;28;20106;-79
2022/04/16 07:56:46;;;;;;;18.33;11.20;;;9.20;99.90;;;;;;5031095;28;20048;-80
2022/04/16 07:59:13;;;;;;;14.40;9.43;;;10.00;99.90;;;;;;5032676;28;20053;-79
2022/04/16 08:01:39;;;;;;;16.45;9.80;;;9.30;99.90;;;;;;5070651;28;20119;-80
2022/04/16 08:04:04;;;;;;;15.65;9.07;;;9.60;99.90;;;;;;5054922;28;20123;-77
2022/04/16 08:06:31;;;;;;;18.05;9.55;;;9.40;99.90;;;;;;5041706;28;20375;-78
2022/04/16 08:09:01;;;;;;;15.70;9.52;;;9.60;99.90;;;;;;5044794;28;20059;-79
2022/04/16 08:11:31;;;;;;;15.85;8.18;;;9.50;99.90;;;;;;5040244;28;20048;-80
2022/04/16 08:13:57;;;;;;;17.67;9.68;;;9.70;99.90;;;;;;5061839;28;20059;-81
2022/04/16 08:16:23;;;;;;;19.17;9.02;;;9.80;99.90;;;;;;5063673;28;20040;-79
2022/04/16 08:19:27;;;;;;;15.77;9.43;;;9.70;99.90;;;;;;5069109;28;20090;-84
2022/04/16 08:21:53;;;;;;;15.45;7.93;;;9.60;99.90;;;;;;5045630;28;20404;-84
2022/04/16 08:24:38;;;;;;;13.70;8.10;;;9.70;99.90;;;;;;5054369;28;20441;-85
2022/04/16 08:27:05;;;;;;;13.45;7.28;;;9.60;99.90;;;;;;5029820;28;20176;-83
2022/04/16 08:29:30;;;;;;;13.43;7.18;;;9.70;99.90;;;;;;5051814;28;20052;-84
2022/04/16 08:31:56;;;;;;;10.60;5.40;;;9.70;99.90;;;;;;5046365;28;20049;-83
2022/04/16 08:34:22;;;;;;;10.20;5.57;;;9.70;99.90;;;;;;5049219;28;20080;-81
2022/04/16 08:36:47;;;;;;;9.25;4.88;;;10.00;99.90;;;;;;5058928;28;20066;-81
2022/04/16 08:39:15;;;;;;;9.48;5.50;;;9.70;99.90;;;;;;5037006;28;20454;-82
2022/04/16 08:41:41;;;;;;;9.48;4.70;;;9.70;99.90;;;;;;5039345;28;20797;-82
2022/04/16 08:44:08;;;;;;;7.90;4.53;;;10.00;99.90;;;;;;5070264;28;20044;-81
2022/04/16 08:46:35;;;;;;;6.93;3.75;;;9.90;99.90;;;;;;5032884;28;20063;-81
2022/04/16 08:49:01;;;;;;;7.28;4.30;;;9.80;99.90;;;;;;5032849;28;20123;-81
2022/04/16 08:51:30;;;;;;;6.57;3.75;;;10.00;99.90;;;;;;5048337;28;20049;-86
2022/04/16 08:54:04;;;;;;;6.40;3.67;;;10.60;99.90;;;;;;5039201;28;20052;-83
2022/04/16 08:56:32;;;;;;;6.07;3.58;;;10.10;99.90;;;;;;5029726;28;20361;-84
2022/04/16 08:58:57;;;;;;;6.15;3.38;;;10.50;99.90;;;;;;5047319;28;20056;-85
2022/04/16 09:01:24;;;;;;;4.45;2.22;;;10.20;99.90;;;;;;5046140;28;20041;-84
2022/04/16 09:03:51;;;;;;;6.28;3.20;;;10.20;99.90;;;;;;5059736;28;20171;-83
2022/04/16 09:06:24;;;;;;;5.03;3.00;;;10.80;99.90;;;;;;5059383;28;20032;-83
2022/04/16 09:08:49;;;;;;;4.30;2.67;;;10.50;99.90;;;;;;5055022;28;20044;-82
2022/04/16 09:11:21;;;;;;;5.65;2.65;;;10.50;99.90;;;;;;5054500;28;20365;-84
2022/04/16 09:13:49;;;;;;;8.20;3.20;;;10.60;99.90;;;;;;5038893;28;20048;-83
2022/04/16 09:16:16;;;;;;;4.13;2.60;;;10.70;99.90;;;;;;5038974;28;20052;-81
2022/04/16 09:18:52;;;;;;;3.75;2.40;;;10.50;99.90;;;;;;5047967;28;20048;-82
2022/04/16 09:21:20;;;;;;;4.25;2.30;;;10.80;99.90;;;;;;5046479;28;20095;-82
2022/04/16 09:24:00;;;;;;;4.32;1.83;;;10.90;99.90;;;;;;5034648;28;20056;-82
2022/04/16 09:26:35;;;;;;;3.45;1.83;;;10.90;99.90;;;;;;5035898;28;20156;-82
2022/04/16 09:29:10;;;;;;;2.53;1.50;;;11.20;99.90;;;;;;5072383;28;20040;-82
2022/04/16 09:31:39;;;;;;;3.55;1.23;;;11.00;99.90;;;;;;5033867;28;20436;-83
2022/04/16 09:34:15;;;;;;;1.90;1.20;;;11.10;99.90;;;;;;5033362;28;20044;-85
2022/04/16 09:36:43;;;;;;;4.90;1.40;;;11.10;99.50;;;;;;5053674;28;20044;-81
2022/04/16 09:39:10;;;;;;;5.85;1.80;;;11.20;99.90;;;;;;5039965;28;20048;-83
2022/04/16 09:41:41;;;;;;;10.30;1.70;;;11.10;99.90;;;;;;5064790;28;20047;-82
2022/04/16 09:44:25;;;;;;;1.85;1.10;;;11.50;99.90;;;;;;5053175;28;20182;-81
2022/04/16 09:46:52;;;;;;;1.95;1.20;;;11.30;99.70;;;;;;5050882;28;20105;-81
2022/04/16 09:49:18;;;;;;;6.45;1.60;;;11.40;99.90;;;;;;5035875;28;20109;-84
2022/04/16 09:51:48;;;;;;;3.13;1.30;;;11.40;99.80;;;;;;5052961;28;20143;-81
2022/04/16 09:54:15;;;;;;;5.28;1.75;;;11.60;99.90;;;;;;5037099;28;20127;-83
2022/04/16 09:56:44;;;;;;;2.15;1.30;;;11.80;99.90;;;;;;5051952;28;20048;-82
2022/04/16 09:59:12;;;;;;;2.08;1.50;;;11.80;99.40;;;;;;5070530;28;20048;-81
2022/04/16 10:01:39;;;;;;;2.67;1.65;;;12.50;99.30;;;;;;5052482;28;20456;-83
2022/04/16 10:04:07;;;;;;;2.35;1.50;;;11.90;99.10;;;;;;5045905;28;20048;-83
2022/04/16 10:06:33;;;;;;;2.35;1.60;;;12.20;99.90;;;;;;5052496;28;20037;-83
2022/04/16 10:09:13;;;;;;;2.58;1.30;;;12.20;99.90;;;;;;5070451;28;20072;-84
2022/04/16 10:14:43;;;;;;;9.35;1.95;;;12.50;99.90;;;;;;5052496;28;20102;-83
2022/04/16 10:17:19;;;;;;;2.17;1.30;;;12.50;99.50;;;;;;5034150;28;20047;-82
2022/04/16 10:19:48;;;;;;;2.30;1.20;;;13.00;99.40;;;;;;5051908;28;20045;-83
2022/04/16 10:22:24;;;;;;;4.78;1.40;;;12.60;96.70;;;;;;5032028;28;20617;-83
2022/04/16 10:24:53;;;;;;;2.50;1.35;;;12.90;98.90;;;;;;5035343;28;20059;-84
2022/04/16 10:27:30;;;;;;;2.05;1.45;;;13.00;98.60;;;;;;5048003;28;20388;-83
2022/04/16 10:30:00;;;;;;;4.07;1.08;;;13.30;99.20;;;;;;5046337;28;20059;-83
2022/04/16 10:32:40;;;;;;;2.45;1.30;;;13.10;97.20;;;;;;5026924;28;20498;-83
2022/04/16 10:35:17;;;;;;;3.67;1.30;;;13.50;98.20;;;;;;5032782;28;20089;-81
2022/04/16 10:37:49;;;;;;;2.38;1.17;;;13.50;97.00;;;;;;5051511;28;20083;-81
2022/04/16 10:40:23;;;;;;;2.13;1.50;;;13.80;99.00;;;;;;5032482;28;20048;-82
2022/04/16 10:42:58;;;;;;;1.85;1.20;;;14.00;99.60;;;;;;5046453;28;20036;-83
2022/04/16 10:45:25;;;;;;;2.72;1.20;;;14.10;97.40;;;;;;5028907;28;20516;-81
2022/04/16 10:47:54;;;;;;;3.28;1.10;;;14.10;93.30;;;;;;5069929;28;20024;-82
2022/04/16 10:50:21;;;;;;;2.50;1.02;;;14.20;95.10;;;;;;5031955;28;20044;-81
2022/04/16 10:53:01;;;;;;;1.40;1.00;;;14.50;96.10;;;;;;5049303;28;20146;-83
2022/04/16 10:55:31;;;;;;;4.43;0.90;;;14.60;93.60;;;;;;5036235;28;20111;-80
2022/04/16 10:58:03;;;;;;;0.93;0.77;;;14.90;95.70;;;;;;5047922;28;20057;-82
2022/04/16 11:00:36;;;;;;;4.25;0.80;;;14.60;89.00;;;;;;5052985;28;20090;-81
2022/04/16 11:03:30;;;;;;;2.22;0.85;;;14.80;89.30;;;;;;5032787;28;20118;-82
2022/04/16 11:06:09;;;;;;;2.88;0.90;;;15.20;90.50;;;;;;5025914;28;20051;-82
2022/04/16 11:08:35;;;;;;;1.75;0.70;;;15.30;81.50;;;;;;5062912;28;20419;-82
2022/04/16 11:11:02;;;;;;;3.45;0.80;;;15.50;83.50;;;;;;5033873;28;20135;-82
2022/04/16 11:13:46;;;;;;;2.30;0.80;;;15.70;90.00;;;;;;5026421;28;20105;-84
2022/04/16 11:16:22;;;;;;;2.42;0.90;;;15.60;80.80;;;;;;5050566;28;20036;-84
2022/04/16 11:18:48;;;;;;;1.10;0.70;;;15.70;81.70;;;;;;5029798;28;20047;-84
2022/04/16 11:21:21;;;;;;;3.47;0.80;;;15.50;79.10;;;;;;5033387;28;20048;-85
2022/04/16 11:23:48;;;;;;;1.52;0.70;;;15.80;80.50;;;;;;5028794;28;20339;-84
2022/04/16 11:34:36;;;;;;;2.60;0.82;;;16.10;67.40;;;;;;5047982;28;20124;-85
2022/04/16 11:37:02;;;;;;;3.20;0.70;;;16.60;70.50;;;;;;5023274;28;20523;-83
2022/04/16 11:39:31;;;;;;;0.77;0.60;;;16.50;65.10;;;;;;5045483;28;20053;-87
2022/04/16 11:42:07;;;;;;;1.55;0.60;;;16.50;65.50;;;;;;5050927;28;20052;-89
2022/04/16 11:44:48;;;;;;;1.35;0.80;;;16.70;71.20;;;;;;5054065;28;20088;-85
2022/04/16 11:47:17;;;;;;;0.65;0.60;;;16.70;74.00;;;;;;5035639;28;20045;-83
2022/04/16 11:49:54;;;;;;;1.38;0.95;;;16.80;74.60;;;;;;5040290;28;20336;-83
2022/04/16 11:52:24;;;;;;;1.27;0.90;;;17.00;74.30;;;;;;5051754;28;20041;-86
2022/04/16 11:55:00;;;;;;;1.80;1.00;;;16.60;68.60;;;;;;5037960;28;20037;-84
2022/04/16 11:57:26;;;;;;;3.88;0.93;;;17.00;68.00;;;;;;5033278;28;20211;-85
2022/04/16 11:59:59;;;;;;;2.28;0.90;;;16.80;74.40;;;;;;5032402;28;20268;-86
2022/04/16 12:02:34;;;;;;;3.95;0.80;;;17.20;75.40;;;;;;5055896;28;20053;-85
2022/04/16 12:05:36;;;;;;;4.13;1.10;;;17.20;72.10;;;;;;5040950;28;20428;-86
2022/04/16 12:08:07;;;;;;;1.80;0.80;;;17.30;70.10;;;;;;5056573;28;20514;-85
2022/04/16 12:10:36;;;;;;;1.65;0.70;;;17.50;72.50;;;;;;5040583;28;20472;-85
2022/04/16 12:13:10;;;;;;;1.67;0.85;;;17.40;68.80;;;;;;5056523;28;20509;-84
2022/04/16 12:15:45;;;;;;;5.30;0.80;;;17.10;63.10;;;;;;5039259;28;20455;-86
2022/04/16 12:18:23;;;;;;;2.00;0.70;;;17.70;69.80;;;;;;5056580;28;20480;-85
2022/04/16 12:20:49;;;;;;;2.30;0.70;;;17.60;59.70;;;;;;5039587;28;20058;-85
2022/04/16 12:23:38;;;;;;;1.27;0.90;;;17.70;59.80;;;;;;5038977;28;20056;-84
2022/04/16 12:26:09;;;;;;;0.90;0.70;;;17.80;63.10;;;;;;5054982;28;20697;-83
2022/04/16 12:28:39;;;;;;;6.43;5.70;;;17.60;57.90;;;;;;5055590;28;20036;-81
2022/04/16 12:31:05;;;;;;;6.78;5.80;;;18.10;74.90;;;;;;5050658;28;20060;-81
2022/04/16 12:33:31;;;;;;;3.35;3.03;;;18.80;78.80;;;;;;5051762;28;20071;-82
2022/04/16 12:35:58;;;;;;;6.40;5.45;;;18.80;77.50;;;;;;5046312;28;20469;-80
2022/04/16 12:38:25;;;;;;;4.43;2.63;;;19.20;87.60;;;;;;5035484;28;20158;-79
2022/04/16 12:41:03;;;;;;;5.40;2.97;;;19.40;74.10;;;;;;5046131;28;20040;-79
2022/04/16 12:43:29;;;;;;;3.40;1.20;;;19.90;81.00;;;;;;5024226;28;20041;-78
2022/04/16 12:45:54;;;;;;;1.88;1.38;;;20.00;67.50;;;;;;5030190;28;20048;-78
2022/04/16 12:48:33;;;;;;;3.55;1.38;;;20.00;69.80;;;;;;5055151;28;20033;-78
2022/04/16 12:50:59;;;;;;;2.00;1.02;;;20.00;70.40;;;;;;5054294;28;20046;-81
2022/04/16 12:53:26;;;;;;;2.22;0.80;;;20.00;68.80;;;;;;5018757;28;20052;-82
2022/04/16 12:55:52;;;;;;;2.25;0.98;;;19.80;64.80;;;;;;5035815;28;20056;-80
2022/04/16 12:58:18;;;;;;;1.60;1.00;;;19.70;63.20;;;;;;5027926;28;20809;-79
2022/04/16 13:00:47;;;;;;;4.53;0.80;;;19.90;66.40;;;;;;5045469;28;20494;-78
2022/04/16 13:03:13;;;;;;;2.70;0.98;;;19.90;62.90;;;;;;5036220;28;20072;-79
2022/04/16 13:05:39;;;;;;;2.13;0.88;;;20.30;64.40;;;;;;5054431;28;20044;-78
2022/04/16 13:08:05;;;;;;;0.80;0.65;;;20.20;66.30;;;;;;5052215;28;20055;-79